SAS86P EKCH-EDDS
Flight info
| Callsign | SAS86P |
|---|---|
| Flight time | 1h 14m |
| Altitude | 36000 |
| Route | NEXEN T503 GIMRU DCT MICOS DCT BERXO/N0441F370 DCT SILWE DCT OSBIT P605 TOSTU T726 LBU |
| Aircraft | A320/M-SDE3FGHIRWY/LB1 |
Departure
| Time | 2026-04-24 11:34 |
|---|---|
| Airport | Copenhagen Kastrup Airport (EKCH) |
Arrival
| Time | 2026-04-24 12:49 |
|---|---|
| Airport | Stuttgart Airport (EDDS) |
| Time | Latitude | Longitude | Altitude | Speed | Heading |
|---|---|---|---|---|---|
| 2026-04-24 11:01 | 55.62756 | 12.64474 | 24 ft | 0 kts | 101° |
| 2026-04-24 11:22 | 55.62758 | 12.64463 | 24 ft | 4 kts | 97° |
| 2026-04-24 11:22 | 55.62756 | 12.64417 | 24 ft | 4 kts | 63° |
| 2026-04-24 11:22 | 55.62740 | 12.64380 | 26 ft | 4 kts | 37° |
| 2026-04-24 11:22 | 55.62717 | 12.64355 | 24 ft | 4 kts | 27° |
| 2026-04-24 11:23 | 55.62695 | 12.64333 | 28 ft | 2 kts | 39° |
| 2026-04-24 11:23 | 55.62677 | 12.64308 | 24 ft | 4 kts | 32° |
| 2026-04-24 11:23 | 55.62654 | 12.64285 | 28 ft | 4 kts | 24° |
| 2026-04-24 11:23 | 55.62628 | 12.64267 | 27 ft | 4 kts | 17° |
| 2026-04-24 11:24 | 55.62603 | 12.64253 | 28 ft | 4 kts | 24° |
| 2026-04-24 11:24 | 55.62581 | 12.64232 | 25 ft | 4 kts | 39° |
| 2026-04-24 11:24 | 55.62564 | 12.64197 | 27 ft | 4 kts | 66° |
| 2026-04-24 11:24 | 55.62558 | 12.64152 | 27 ft | 4 kts | 96° |
| 2026-04-24 11:25 | 55.62564 | 12.64107 | 26 ft | 4 kts | 115° |
| 2026-04-24 11:25 | 55.62577 | 12.64065 | 45 ft | 4 kts | 124° |
| 2026-04-24 11:25 | 55.62583 | 12.64049 | 50 ft | 0 kts | 123° |
| 2026-04-24 11:28 | 55.62581 | 12.64054 | 49 ft | 1 kts | 123° |
| 2026-04-24 11:28 | 55.62566 | 12.64095 | 25 ft | 7 kts | 123° |
| 2026-04-24 11:28 | 55.62531 | 12.64187 | 12 ft | 10 kts | 123° |
| 2026-04-24 11:28 | 55.62489 | 12.64298 | 24 ft | 12 kts | 126° |
| 2026-04-24 11:29 | 55.62432 | 12.64426 | 24 ft | 16 kts | 128° |
| 2026-04-24 11:29 | 55.62355 | 12.64631 | 24 ft | 22 kts | 122° |
| 2026-04-24 11:29 | 55.62267 | 12.64866 | 26 ft | 24 kts | 123° |
| 2026-04-24 11:29 | 55.62189 | 12.65075 | 25 ft | 15 kts | 127° |
| 2026-04-24 11:30 | 55.62101 | 12.65053 | 24 ft | 15 kts | 212° |
| 2026-04-24 11:30 | 55.62010 | 12.64947 | 24 ft | 17 kts | 214° |
| 2026-04-24 11:30 | 55.61907 | 12.64829 | 24 ft | 18 kts | 212° |
| 2026-04-24 11:30 | 55.61795 | 12.64701 | 24 ft | 20 kts | 213° |
| 2026-04-24 11:31 | 55.61673 | 12.64561 | 24 ft | 22 kts | 213° |
| 2026-04-24 11:31 | 55.61541 | 12.64409 | 25 ft | 23 kts | 212° |
| 2026-04-24 11:31 | 55.61398 | 12.64245 | 24 ft | 25 kts | 212° |
| 2026-04-24 11:31 | 55.61244 | 12.64067 | 24 ft | 27 kts | 213° |
| 2026-04-24 11:32 | 55.61081 | 12.63881 | 25 ft | 29 kts | 213° |
| 2026-04-24 11:32 | 55.60915 | 12.63688 | 24 ft | 20 kts | 212° |
| 2026-04-24 11:32 | 55.60816 | 12.63590 | 24 ft | 13 kts | 188° |
| 2026-04-24 11:32 | 55.60744 | 12.63686 | 24 ft | 14 kts | 130° |
| 2026-04-24 11:33 | 55.60692 | 12.63838 | 25 ft | 15 kts | 93° |
| 2026-04-24 11:33 | 55.60729 | 12.63951 | 25 ft | 3 kts | 39° |
| 2026-04-24 11:33 | 55.60734 | 12.63957 | 25 ft | 2 kts | 39° |
| 2026-04-24 11:33 | 55.60865 | 12.64154 | 25 ft | 57 kts | 40° |
| 2026-04-24 11:34 | 55.61309 | 12.64843 | 26 ft | 111 kts | 41° |
| 2026-04-24 11:34 | 55.62005 | 12.65913 | 28 ft | 153 kts | 38° |
| 2026-04-24 11:34 | 55.62830 | 12.67255 | 420 ft | 165 kts | 42° |
| 2026-04-24 11:34 | 55.63659 | 12.68693 | 987 ft | 171 kts | 41° |
| 2026-04-24 11:35 | 55.64507 | 12.70228 | 1605 ft | 175 kts | 41° |
| 2026-04-24 11:35 | 55.65342 | 12.71808 | 2196 ft | 174 kts | 42° |
| 2026-04-24 11:35 | 55.66176 | 12.73381 | 2661 ft | 181 kts | 39° |
| 2026-04-24 11:35 | 55.67088 | 12.75046 | 3090 ft | 195 kts | 45° |
| 2026-04-24 11:36 | 55.67879 | 12.77182 | 3430 ft | 220 kts | 59° |
| 2026-04-24 11:36 | 55.68427 | 12.79815 | 3876 ft | 241 kts | 72° |
| 2026-04-24 11:36 | 55.68658 | 12.82865 | 4486 ft | 258 kts | 86° |
| 2026-04-24 11:36 | 55.68386 | 12.86095 | 5230 ft | 271 kts | 105° |
| 2026-04-24 11:37 | 55.67492 | 12.89106 | 6003 ft | 282 kts | 126° |
| 2026-04-24 11:37 | 55.66037 | 12.91433 | 6788 ft | 289 kts | 147° |
| 2026-04-24 11:37 | 55.64152 | 12.92843 | 7478 ft | 297 kts | 168° |
| 2026-04-24 11:37 | 55.62079 | 12.93083 | 8197 ft | 301 kts | 189° |
| 2026-04-24 11:38 | 55.60100 | 12.92058 | 8951 ft | 299 kts | 211° |
| 2026-04-24 11:38 | 55.58379 | 12.89940 | 9625 ft | 303 kts | 225° |
| 2026-04-24 11:38 | 55.56845 | 12.87351 | 10305 ft | 305 kts | 230° |
| 2026-04-24 11:38 | 55.55432 | 12.84578 | 10907 ft | 312 kts | 233° |
| 2026-04-24 11:39 | 55.53982 | 12.81558 | 11126 ft | 333 kts | 233° |
| 2026-04-24 11:39 | 55.52414 | 12.78392 | 11437 ft | 349 kts | 231° |
| 2026-04-24 11:39 | 55.50703 | 12.75259 | 12026 ft | 356 kts | 228° |
| 2026-04-24 11:39 | 55.48887 | 12.72239 | 12669 ft | 361 kts | 226° |
| 2026-04-24 11:40 | 55.47005 | 12.69325 | 13325 ft | 365 kts | 224° |
| 2026-04-24 11:40 | 55.45047 | 12.66409 | 13932 ft | 369 kts | 224° |
| 2026-04-24 11:40 | 55.43080 | 12.63518 | 14507 ft | 373 kts | 224° |
| 2026-04-24 11:40 | 55.41078 | 12.60573 | 15079 ft | 376 kts | 224° |
| 2026-04-24 11:41 | 55.39059 | 12.57588 | 15651 ft | 378 kts | 224° |
| 2026-04-24 11:41 | 55.37061 | 12.54619 | 16198 ft | 381 kts | 224° |
| 2026-04-24 11:41 | 55.35021 | 12.51574 | 16773 ft | 384 kts | 224° |
| 2026-04-24 11:41 | 55.32974 | 12.48514 | 17341 ft | 387 kts | 224° |
| 2026-04-24 11:42 | 55.30937 | 12.45462 | 17925 ft | 390 kts | 224° |
| 2026-04-24 11:42 | 55.28856 | 12.42344 | 18492 ft | 393 kts | 224° |
| 2026-04-24 11:42 | 55.26762 | 12.39214 | 19035 ft | 396 kts | 224° |
| 2026-04-24 11:42 | 55.24648 | 12.36066 | 19613 ft | 398 kts | 224° |
| 2026-04-24 11:43 | 55.22556 | 12.32959 | 20175 ft | 400 kts | 224° |
| 2026-04-24 11:43 | 55.20416 | 12.29782 | 20732 ft | 402 kts | 224° |
| 2026-04-24 11:43 | 55.18273 | 12.26609 | 21277 ft | 405 kts | 224° |
| 2026-04-24 11:43 | 55.16105 | 12.23406 | 21815 ft | 406 kts | 224° |
| 2026-04-24 11:44 | 55.13960 | 12.20238 | 22345 ft | 408 kts | 225° |
| 2026-04-24 11:44 | 55.11774 | 12.17015 | 22835 ft | 410 kts | 225° |
| 2026-04-24 11:44 | 55.09576 | 12.13779 | 23346 ft | 413 kts | 225° |
| 2026-04-24 11:44 | 55.07394 | 12.10573 | 23813 ft | 415 kts | 225° |
| 2026-04-24 11:45 | 55.05172 | 12.07311 | 24230 ft | 416 kts | 225° |
| 2026-04-24 11:45 | 55.02972 | 12.04084 | 24627 ft | 418 kts | 225° |
| 2026-04-24 11:45 | 55.00733 | 12.00810 | 25032 ft | 420 kts | 225° |
| 2026-04-24 11:45 | 54.98482 | 11.97523 | 25425 ft | 422 kts | 225° |
| 2026-04-24 11:46 | 54.96222 | 11.94226 | 25811 ft | 423 kts | 225° |
| 2026-04-24 11:46 | 54.93959 | 11.90930 | 26178 ft | 425 kts | 225° |
| 2026-04-24 11:46 | 54.91700 | 11.87646 | 26537 ft | 427 kts | 225° |
| 2026-04-24 11:46 | 54.89409 | 11.84320 | 26911 ft | 429 kts | 225° |
| 2026-04-24 11:47 | 54.87104 | 11.80971 | 27276 ft | 431 kts | 225° |
| 2026-04-24 11:47 | 54.84824 | 11.77662 | 27622 ft | 433 kts | 225° |
| 2026-04-24 11:47 | 54.82497 | 11.74290 | 27978 ft | 435 kts | 224° |
| 2026-04-24 11:47 | 54.80160 | 11.70914 | 28342 ft | 436 kts | 224° |
| 2026-04-24 11:48 | 54.77844 | 11.67583 | 28702 ft | 438 kts | 224° |
| 2026-04-24 11:48 | 54.75492 | 11.64204 | 29042 ft | 440 kts | 224° |
| 2026-04-24 11:48 | 54.73120 | 11.60799 | 29386 ft | 442 kts | 224° |
| 2026-04-24 11:48 | 54.70743 | 11.57395 | 29800 ft | 441 kts | 224° |
| 2026-04-24 11:49 | 54.68409 | 11.54054 | 30303 ft | 439 kts | 225° |
| 2026-04-24 11:49 | 54.66049 | 11.50671 | 30722 ft | 438 kts | 224° |
| 2026-04-24 11:49 | 54.63734 | 11.47358 | 31131 ft | 436 kts | 224° |
| 2026-04-24 11:49 | 54.61392 | 11.44017 | 31559 ft | 435 kts | 224° |
| 2026-04-24 11:50 | 54.59055 | 11.40693 | 31995 ft | 433 kts | 224° |
| 2026-04-24 11:50 | 54.56727 | 11.37388 | 32424 ft | 431 kts | 224° |
| 2026-04-24 11:50 | 54.54434 | 11.34142 | 32847 ft | 430 kts | 224° |
| 2026-04-24 11:50 | 54.52119 | 11.30874 | 33283 ft | 428 kts | 224° |
| 2026-04-24 11:51 | 54.49806 | 11.27611 | 33738 ft | 426 kts | 225° |
| 2026-04-24 11:51 | 54.47544 | 11.24413 | 34154 ft | 424 kts | 225° |
| 2026-04-24 11:51 | 54.45264 | 11.21188 | 34511 ft | 423 kts | 225° |
| 2026-04-24 11:51 | 54.42983 | 11.17967 | 34857 ft | 422 kts | 225° |
| 2026-04-24 11:52 | 54.40742 | 11.14810 | 35183 ft | 421 kts | 225° |
| 2026-04-24 11:52 | 54.38472 | 11.11618 | 35496 ft | 420 kts | 224° |
| 2026-04-24 11:52 | 54.36212 | 11.08446 | 35789 ft | 419 kts | 224° |
| 2026-04-24 11:52 | 54.33949 | 11.05279 | 36048 ft | 419 kts | 223° |
| 2026-04-24 11:53 | 54.28846 | 11.00177 | 36130 ft | 438 kts | 206° |
| 2026-04-24 11:53 | 54.22883 | 10.97497 | 36121 ft | 447 kts | 198° |
| 2026-04-24 11:54 | 54.16795 | 10.95142 | 36122 ft | 447 kts | 198° |
| 2026-04-24 11:54 | 54.10758 | 10.92804 | 36129 ft | 446 kts | 198° |
| 2026-04-24 11:55 | 54.05699 | 10.90841 | 36136 ft | 446 kts | 198° |
| 2026-04-24 11:55 | 53.99652 | 10.88490 | 36159 ft | 446 kts | 198° |
| 2026-04-24 11:56 | 53.93577 | 10.86141 | 36167 ft | 446 kts | 198° |
| 2026-04-24 11:56 | 53.87535 | 10.83830 | 36182 ft | 446 kts | 198° |
| 2026-04-24 11:57 | 53.81499 | 10.81527 | 36181 ft | 446 kts | 198° |
| 2026-04-24 11:57 | 53.75423 | 10.79209 | 36184 ft | 446 kts | 198° |
| 2026-04-24 11:58 | 53.69408 | 10.76921 | 36181 ft | 445 kts | 198° |
| 2026-04-24 11:58 | 53.63344 | 10.74609 | 36179 ft | 445 kts | 198° |
| 2026-04-24 11:59 | 53.57336 | 10.72324 | 36172 ft | 444 kts | 198° |
| 2026-04-24 11:59 | 53.51286 | 10.70038 | 36173 ft | 444 kts | 198° |
| 2026-04-24 12:00 | 53.45291 | 10.67787 | 36173 ft | 444 kts | 198° |
| 2026-04-24 12:00 | 53.39244 | 10.65516 | 36179 ft | 444 kts | 198° |
| 2026-04-24 12:01 | 53.33234 | 10.63258 | 36178 ft | 443 kts | 198° |
| 2026-04-24 12:01 | 53.27233 | 10.61016 | 36181 ft | 443 kts | 198° |
| 2026-04-24 12:02 | 53.21190 | 10.58761 | 36178 ft | 443 kts | 198° |
| 2026-04-24 12:02 | 53.15200 | 10.56545 | 36200 ft | 442 kts | 198° |
| 2026-04-24 12:03 | 53.09178 | 10.54313 | 36197 ft | 442 kts | 198° |
| 2026-04-24 12:03 | 53.03200 | 10.52105 | 36209 ft | 442 kts | 198° |
| 2026-04-24 12:04 | 52.97179 | 10.49890 | 36214 ft | 441 kts | 198° |
| 2026-04-24 12:04 | 52.91208 | 10.47704 | 36212 ft | 441 kts | 198° |
| 2026-04-24 12:05 | 52.85196 | 10.45506 | 36211 ft | 441 kts | 198° |
| 2026-04-24 12:05 | 52.79239 | 10.43334 | 36217 ft | 440 kts | 198° |
| 2026-04-24 12:06 | 52.73234 | 10.41140 | 36208 ft | 440 kts | 198° |
| 2026-04-24 12:06 | 52.67267 | 10.38973 | 36226 ft | 440 kts | 197° |
| 2026-04-24 12:07 | 52.61304 | 10.36819 | 36226 ft | 440 kts | 197° |
| 2026-04-24 12:07 | 52.55350 | 10.34671 | 36232 ft | 439 kts | 197° |
| 2026-04-24 12:08 | 52.49368 | 10.32519 | 36231 ft | 439 kts | 197° |
| 2026-04-24 12:08 | 52.43425 | 10.30383 | 36229 ft | 439 kts | 197° |
| 2026-04-24 12:09 | 52.37451 | 10.28245 | 36229 ft | 438 kts | 197° |
| 2026-04-24 12:09 | 52.31506 | 10.26122 | 36230 ft | 438 kts | 197° |
| 2026-04-24 12:10 | 52.25539 | 10.24000 | 36228 ft | 438 kts | 197° |
| 2026-04-24 12:11 | 52.16610 | 10.20842 | 36226 ft | 438 kts | 197° |
| 2026-04-24 12:11 | 52.10635 | 10.18721 | 36225 ft | 437 kts | 197° |
| 2026-04-24 12:12 | 52.04698 | 10.16614 | 36222 ft | 437 kts | 197° |
| 2026-04-24 12:12 | 51.98758 | 10.14530 | 36220 ft | 438 kts | 197° |
| 2026-04-24 12:13 | 51.92820 | 10.12457 | 36224 ft | 438 kts | 197° |
| 2026-04-24 12:13 | 51.86836 | 10.10363 | 36228 ft | 438 kts | 197° |
| 2026-04-24 12:14 | 51.80899 | 10.08295 | 36226 ft | 438 kts | 196° |
| 2026-04-24 12:14 | 51.74932 | 10.06218 | 36227 ft | 438 kts | 196° |
| 2026-04-24 12:15 | 51.68995 | 10.04151 | 36227 ft | 438 kts | 196° |
| 2026-04-24 12:15 | 51.63023 | 10.02083 | 36230 ft | 438 kts | 196° |
| 2026-04-24 12:16 | 51.57083 | 10.00037 | 36231 ft | 438 kts | 196° |
| 2026-04-24 12:16 | 51.51093 | 9.97968 | 36232 ft | 439 kts | 196° |
| 2026-04-24 12:17 | 51.45157 | 9.95925 | 36231 ft | 439 kts | 196° |
| 2026-04-24 12:17 | 51.39166 | 9.93881 | 36232 ft | 439 kts | 196° |
| 2026-04-24 12:18 | 51.33178 | 9.91854 | 36234 ft | 439 kts | 195° |
| 2026-04-24 12:18 | 51.27226 | 9.89829 | 36235 ft | 439 kts | 196° |
| 2026-04-24 12:19 | 51.21199 | 9.88096 | 36234 ft | 443 kts | 187° |
| 2026-04-24 12:19 | 51.15028 | 9.87549 | 36230 ft | 443 kts | 187° |
| 2026-04-24 12:20 | 51.08887 | 9.87024 | 36233 ft | 443 kts | 187° |
| 2026-04-24 12:20 | 51.02748 | 9.86484 | 36227 ft | 443 kts | 187° |
| 2026-04-24 12:21 | 50.96568 | 9.85939 | 36227 ft | 443 kts | 186° |
| 2026-04-24 12:21 | 50.90393 | 9.85410 | 36228 ft | 443 kts | 186° |
| 2026-04-24 12:22 | 50.84255 | 9.84889 | 36223 ft | 443 kts | 186° |
| 2026-04-24 12:22 | 50.78073 | 9.84358 | 36221 ft | 443 kts | 186° |
| 2026-04-24 12:23 | 50.71919 | 9.83824 | 36219 ft | 444 kts | 186° |
| 2026-04-24 12:23 | 50.65784 | 9.83291 | 36214 ft | 444 kts | 186° |
| 2026-04-24 12:24 | 50.59599 | 9.82762 | 36213 ft | 444 kts | 186° |
| 2026-04-24 12:24 | 50.53462 | 9.82246 | 36210 ft | 444 kts | 186° |
| 2026-04-24 12:25 | 50.47277 | 9.81715 | 36203 ft | 443 kts | 186° |
| 2026-04-24 12:25 | 50.41130 | 9.81191 | 36198 ft | 443 kts | 186° |
| 2026-04-24 12:26 | 50.34953 | 9.80666 | 36198 ft | 443 kts | 186° |
| 2026-04-24 12:26 | 50.28801 | 9.80144 | 36196 ft | 443 kts | 186° |
| 2026-04-24 12:27 | 50.22667 | 9.79623 | 36169 ft | 444 kts | 185° |
| 2026-04-24 12:27 | 50.19569 | 9.79362 | 35689 ft | 445 kts | 185° |
| 2026-04-24 12:27 | 50.16468 | 9.79100 | 35173 ft | 445 kts | 185° |
| 2026-04-24 12:27 | 50.13371 | 9.78839 | 34673 ft | 446 kts | 185° |
| 2026-04-24 12:28 | 50.10262 | 9.78580 | 34203 ft | 447 kts | 185° |
| 2026-04-24 12:28 | 50.07183 | 9.78347 | 33665 ft | 449 kts | 182° |
| 2026-04-24 12:28 | 50.04049 | 9.78499 | 33123 ft | 448 kts | 179° |
| 2026-04-24 12:28 | 50.00941 | 9.78705 | 32594 ft | 446 kts | 179° |
| 2026-04-24 12:29 | 49.97839 | 9.78906 | 32066 ft | 443 kts | 179° |
| 2026-04-24 12:29 | 49.94794 | 9.79099 | 31570 ft | 441 kts | 179° |
| 2026-04-24 12:29 | 49.91729 | 9.79293 | 31070 ft | 439 kts | 179° |
| 2026-04-24 12:29 | 49.88686 | 9.79488 | 30580 ft | 436 kts | 179° |
| 2026-04-24 12:30 | 49.85642 | 9.79686 | 30072 ft | 434 kts | 179° |
| 2026-04-24 12:30 | 49.82668 | 9.79879 | 29513 ft | 431 kts | 179° |
| 2026-04-24 12:30 | 49.79664 | 9.80071 | 28961 ft | 429 kts | 179° |
| 2026-04-24 12:30 | 49.76694 | 9.80258 | 28419 ft | 426 kts | 179° |
| 2026-04-24 12:31 | 49.73737 | 9.80442 | 27888 ft | 423 kts | 179° |
| 2026-04-24 12:31 | 49.70791 | 9.80625 | 27364 ft | 421 kts | 179° |
| 2026-04-24 12:31 | 49.67903 | 9.80788 | 26864 ft | 418 kts | 179° |
| 2026-04-24 12:31 | 49.64987 | 9.80927 | 26360 ft | 417 kts | 179° |
| 2026-04-24 12:32 | 49.62092 | 9.80835 | 25864 ft | 414 kts | 188° |
| 2026-04-24 12:32 | 49.59279 | 9.79962 | 25382 ft | 411 kts | 198° |
| 2026-04-24 12:32 | 49.56645 | 9.78407 | 24909 ft | 408 kts | 204° |
| 2026-04-24 12:32 | 49.54027 | 9.76699 | 24441 ft | 407 kts | 204° |
| 2026-04-24 12:33 | 49.51404 | 9.75012 | 23970 ft | 406 kts | 204° |
| 2026-04-24 12:33 | 49.48817 | 9.73361 | 23474 ft | 405 kts | 204° |
| 2026-04-24 12:33 | 49.46199 | 9.71691 | 22936 ft | 405 kts | 204° |
| 2026-04-24 12:33 | 49.43593 | 9.70023 | 22398 ft | 404 kts | 204° |
| 2026-04-24 12:34 | 49.41028 | 9.68380 | 21885 ft | 404 kts | 204° |
| 2026-04-24 12:34 | 49.38431 | 9.66713 | 21369 ft | 403 kts | 204° |
| 2026-04-24 12:34 | 49.35834 | 9.65048 | 20871 ft | 402 kts | 204° |
| 2026-04-24 12:34 | 49.33252 | 9.63395 | 20374 ft | 401 kts | 204° |
| 2026-04-24 12:35 | 49.30676 | 9.61750 | 19910 ft | 399 kts | 203° |
| 2026-04-24 12:35 | 49.28148 | 9.60140 | 19463 ft | 397 kts | 203° |
| 2026-04-24 12:35 | 49.25591 | 9.58514 | 19014 ft | 394 kts | 203° |
| 2026-04-24 12:35 | 49.23063 | 9.56905 | 18567 ft | 391 kts | 203° |
| 2026-04-24 12:36 | 49.20558 | 9.55314 | 18076 ft | 388 kts | 203° |
| 2026-04-24 12:36 | 49.18066 | 9.53732 | 17577 ft | 385 kts | 203° |
| 2026-04-24 12:36 | 49.15629 | 9.52186 | 17092 ft | 382 kts | 203° |
| 2026-04-24 12:36 | 49.13178 | 9.50630 | 16601 ft | 379 kts | 204° |
| 2026-04-24 12:37 | 49.10748 | 9.49086 | 16127 ft | 376 kts | 204° |
| 2026-04-24 12:37 | 49.08333 | 9.47553 | 15655 ft | 374 kts | 203° |
| 2026-04-24 12:37 | 49.05993 | 9.45961 | 15188 ft | 369 kts | 212° |
| 2026-04-24 12:37 | 49.04053 | 9.43466 | 14732 ft | 362 kts | 233° |
| 2026-04-24 12:38 | 49.02617 | 9.40331 | 14290 ft | 358 kts | 238° |
| 2026-04-24 12:38 | 49.01286 | 9.37213 | 13877 ft | 354 kts | 239° |
| 2026-04-24 12:38 | 48.99949 | 9.34075 | 13435 ft | 351 kts | 239° |
| 2026-04-24 12:39 | 48.96009 | 9.24834 | 12119 ft | 341 kts | 239° |
| 2026-04-24 12:39 | 48.94735 | 9.21851 | 11694 ft | 339 kts | 239° |
| 2026-04-24 12:39 | 48.93455 | 9.18847 | 11276 ft | 336 kts | 239° |
| 2026-04-24 12:40 | 48.92179 | 9.15855 | 10858 ft | 334 kts | 239° |
| 2026-04-24 12:40 | 48.90931 | 9.12930 | 10525 ft | 330 kts | 239° |
| 2026-04-24 12:40 | 48.89687 | 9.10008 | 10244 ft | 326 kts | 239° |
| 2026-04-24 12:40 | 48.88452 | 9.07111 | 9847 ft | 325 kts | 239° |
| 2026-04-24 12:41 | 48.87236 | 9.04266 | 9422 ft | 324 kts | 239° |
| 2026-04-24 12:41 | 48.86008 | 9.01388 | 9013 ft | 323 kts | 238° |
| 2026-04-24 12:41 | 48.84785 | 8.98526 | 8592 ft | 321 kts | 239° |
| 2026-04-24 12:41 | 48.83583 | 8.95699 | 8193 ft | 321 kts | 239° |
| 2026-04-24 12:42 | 48.82376 | 8.92860 | 7794 ft | 319 kts | 239° |
| 2026-04-24 12:42 | 48.81175 | 8.90036 | 7400 ft | 317 kts | 239° |
| 2026-04-24 12:42 | 48.79972 | 8.87203 | 6997 ft | 318 kts | 239° |
| 2026-04-24 12:42 | 48.78784 | 8.84440 | 6641 ft | 316 kts | 236° |
| 2026-04-24 12:43 | 48.77175 | 8.82167 | 6276 ft | 318 kts | 211° |
| 2026-04-24 12:43 | 48.75118 | 8.81090 | 5916 ft | 318 kts | 187° |
| 2026-04-24 12:43 | 48.72893 | 8.81176 | 5546 ft | 317 kts | 175° |
| 2026-04-24 12:43 | 48.70713 | 8.81631 | 5187 ft | 315 kts | 167° |
| 2026-04-24 12:44 | 48.68689 | 8.82769 | 4830 ft | 314 kts | 152° |
| 2026-04-24 12:44 | 48.66897 | 8.84652 | 4456 ft | 311 kts | 137° |
| 2026-04-24 12:44 | 48.65491 | 8.87106 | 4107 ft | 306 kts | 122° |
| 2026-04-24 12:44 | 48.64565 | 8.89903 | 3997 ft | 295 kts | 107° |
| 2026-04-24 12:45 | 48.64104 | 8.92867 | 4003 ft | 283 kts | 94° |
| 2026-04-24 12:45 | 48.64045 | 8.94810 | 3995 ft | 274 kts | 86° |
| 2026-04-24 12:45 | 48.64440 | 8.98435 | 4009 ft | 256 kts | 72° |
| 2026-04-24 12:45 | 48.64922 | 9.00949 | 3873 ft | 242 kts | 71° |
| 2026-04-24 12:46 | 48.65233 | 9.02549 | 3679 ft | 235 kts | 71° |
| 2026-04-24 12:46 | 48.65816 | 9.05585 | 3331 ft | 220 kts | 72° |
| 2026-04-24 12:46 | 48.66106 | 9.07093 | 3111 ft | 220 kts | 71° |
| 2026-04-24 12:46 | 48.66523 | 9.09270 | 2801 ft | 212 kts | 71° |
| 2026-04-24 12:47 | 48.67053 | 9.12047 | 2502 ft | 196 kts | 72° |
| 2026-04-24 12:47 | 48.67304 | 9.13332 | 2352 ft | 187 kts | 71° |
| 2026-04-24 12:47 | 48.67641 | 9.15146 | 2075 ft | 167 kts | 72° |
| 2026-04-24 12:47 | 48.67945 | 9.16720 | 1875 ft | 152 kts | 70° |
| 2026-04-24 12:48 | 48.68224 | 9.18237 | 1608 ft | 147 kts | 71° |
| 2026-04-24 12:48 | 48.68513 | 9.19718 | 1419 ft | 146 kts | 71° |
| 2026-04-24 12:48 | 48.68789 | 9.21149 | 1262 ft | 134 kts | 72° |
| 2026-04-24 12:48 | 48.69011 | 9.22302 | 1240 ft | 90 kts | 73° |
| 2026-04-24 12:49 | 48.69139 | 9.22890 | 1224 ft | 27 kts | 45° |
| 2026-04-24 12:49 | 48.69231 | 9.23050 | 1222 ft | 13 kts | 46° |
| 2026-04-24 12:49 | 48.69314 | 9.23155 | 1219 ft | 16 kts | 17° |
| 2026-04-24 12:49 | 48.69404 | 9.23090 | 1221 ft | 16 kts | 289° |
| 2026-04-24 12:50 | 48.69388 | 9.22928 | 1223 ft | 16 kts | 256° |
| 2026-04-24 12:50 | 48.69356 | 9.22766 | 1226 ft | 16 kts | 255° |
| 2026-04-24 12:50 | 48.69327 | 9.22597 | 1227 ft | 17 kts | 253° |
| 2026-04-24 12:50 | 48.69290 | 9.22422 | 1231 ft | 17 kts | 253° |
| 2026-04-24 12:51 | 48.69258 | 9.22240 | 1232 ft | 19 kts | 255° |
| 2026-04-24 12:51 | 48.69221 | 9.22053 | 1237 ft | 18 kts | 251° |
| 2026-04-24 12:51 | 48.69188 | 9.21876 | 1248 ft | 17 kts | 255° |
| 2026-04-24 12:51 | 48.69156 | 9.21717 | 1251 ft | 15 kts | 253° |
| 2026-04-24 12:52 | 48.69129 | 9.21578 | 1257 ft | 13 kts | 253° |
| 2026-04-24 12:52 | 48.69103 | 9.21440 | 1258 ft | 14 kts | 254° |
| 2026-04-24 12:52 | 48.69078 | 9.21300 | 1258 ft | 13 kts | 255° |
| 2026-04-24 12:52 | 48.69060 | 9.21201 | 1268 ft | 9 kts | 253° |
| 2026-04-24 12:53 | 48.69041 | 9.21106 | 1265 ft | 10 kts | 253° |
| 2026-04-24 12:53 | 48.69021 | 9.21004 | 1264 ft | 10 kts | 254° |
| 2026-04-24 12:53 | 48.69003 | 9.20907 | 1269 ft | 9 kts | 253° |
| 2026-04-24 12:53 | 48.68985 | 9.20818 | 1272 ft | 9 kts | 253° |
| 2026-04-24 12:54 | 48.68966 | 9.20719 | 1270 ft | 10 kts | 253° |
| 2026-04-24 12:54 | 48.68945 | 9.20614 | 1274 ft | 10 kts | 254° |
| 2026-04-24 12:54 | 48.68930 | 9.20523 | 1276 ft | 8 kts | 256° |
| 2026-04-24 12:54 | 48.68918 | 9.20456 | 1279 ft | 6 kts | 255° |
| 2026-04-24 12:55 | 48.68905 | 9.20389 | 1279 ft | 9 kts | 253° |
| 2026-04-24 12:55 | 48.68883 | 9.20281 | 1293 ft | 12 kts | 254° |
| 2026-04-24 12:55 | 48.68862 | 9.20166 | 1284 ft | 11 kts | 253° |
| 2026-04-24 12:55 | 48.68840 | 9.20056 | 1287 ft | 11 kts | 253° |
| 2026-04-24 12:56 | 48.68821 | 9.19933 | 1286 ft | 12 kts | 275° |
| 2026-04-24 12:56 | 48.68865 | 9.19838 | 1291 ft | 10 kts | 313° |
| 2026-04-24 12:56 | 48.68877 | 9.19762 | 1294 ft | 7 kts | 258° |
| 2026-04-24 12:56 | 48.68880 | 9.19726 | 1296 ft | 0 kts | 322° |
| 2026-04-24 12:57 | 48.68881 | 9.19726 | 1296 ft | 0 kts | 321° |
| 2026-04-24 12:57 | 48.68877 | 9.19708 | 1296 ft | 3 kts | 250° |
| 2026-04-24 12:57 | 48.68881 | 9.19677 | 1298 ft | 4 kts | 295° |
| 2026-04-24 12:57 | 48.68898 | 9.19666 | 1299 ft | 6 kts | 340° |
| 2026-04-24 12:58 | 48.68937 | 9.19647 | 1302 ft | 3 kts | 344° |
| 2026-04-24 12:58 | 48.68944 | 9.19645 | 1303 ft | 0 kts | 343° |